sensor_id;sensor_type;location;lat;lon;timestamp;P1;durP1;ratioP1;P2;durP2;ratioP2
2772;SDS011;1394;47.044;15.744;2023-08-08T00:00:11;23.87;;;0.70;;
2772;SDS011;1394;47.044;15.744;2023-08-08T00:02:42;23.87;;;0.80;;
2772;SDS011;1394;47.044;15.744;2023-08-08T00:05:09;23.57;;;0.70;;
2772;SDS011;1394;47.044;15.744;2023-08-08T00:07:37;23.57;;;0.70;;
2772;SDS011;1394;47.044;15.744;2023-08-08T00:10:05;23.50;;;0.80;;
2772;SDS011;1394;47.044;15.744;2023-08-08T00:12:33;24.17;;;1.57;;
2772;SDS011;1394;47.044;15.744;2023-08-08T00:15:01;23.90;;;0.93;;
2772;SDS011;1394;47.044;15.744;2023-08-08T00:17:33;23.57;;;0.70;;
2772;SDS011;1394;47.044;15.744;2023-08-08T00:20:04;23.87;;;0.90;;
2772;SDS011;1394;47.044;15.744;2023-08-08T00:22:32;23.57;;;0.70;;
2772;SDS011;1394;47.044;15.744;2023-08-08T00:25:00;23.50;;;0.80;;
2772;SDS011;1394;47.044;15.744;2023-08-08T00:27:29;24.50;;;0.73;;
2772;SDS011;1394;47.044;15.744;2023-08-08T00:29:57;23.80;;;0.80;;
2772;SDS011;1394;47.044;15.744;2023-08-08T00:32:25;23.40;;;0.77;;
2772;SDS011;1394;47.044;15.744;2023-08-08T00:34:53;23.50;;;0.70;;
2772;SDS011;1394;47.044;15.744;2023-08-08T00:37:24;23.60;;;0.80;;
2772;SDS011;1394;47.044;15.744;2023-08-08T00:39:51;23.60;;;0.80;;
2772;SDS011;1394;47.044;15.744;2023-08-08T00:42:19;23.40;;;0.80;;
2772;SDS011;1394;47.044;15.744;2023-08-08T00:44:46;23.83;;;0.77;;
2772;SDS011;1394;47.044;15.744;2023-08-08T00:47:14;23.40;;;0.70;;
2772;SDS011;1394;47.044;15.744;2023-08-08T00:49:41;23.50;;;0.83;;
2772;SDS011;1394;47.044;15.744;2023-08-08T00:52:11;23.10;;;0.60;;
2772;SDS011;1394;47.044;15.744;2023-08-08T00:54:42;23.63;;;0.80;;
2772;SDS011;1394;47.044;15.744;2023-08-08T00:57:12;23.50;;;0.80;;
2772;SDS011;1394;47.044;15.744;2023-08-08T00:59:40;23.70;;;0.90;;
2772;SDS011;1394;47.044;15.744;2023-08-08T01:02:07;23.40;;;0.70;;
2772;SDS011;1394;47.044;15.744;2023-08-08T01:04:35;23.60;;;0.90;;
2772;SDS011;1394;47.044;15.744;2023-08-08T01:07:06;23.63;;;0.90;;
2772;SDS011;1394;47.044;15.744;2023-08-08T01:09:36;24.00;;;0.90;;
2772;SDS011;1394;47.044;15.744;2023-08-08T01:12:06;23.20;;;0.80;;
2772;SDS011;1394;47.044;15.744;2023-08-08T01:14:36;23.20;;;0.60;;
2772;SDS011;1394;47.044;15.744;2023-08-08T01:17:04;23.50;;;0.80;;
2772;SDS011;1394;47.044;15.744;2023-08-08T01:19:31;23.83;;;0.90;;
2772;SDS011;1394;47.044;15.744;2023-08-08T01:22:01;23.43;;;0.73;;
2772;SDS011;1394;47.044;15.744;2023-08-08T01:24:30;23.57;;;0.90;;
2772;SDS011;1394;47.044;15.744;2023-08-08T01:27:01;24.00;;;0.90;;
2772;SDS011;1394;47.044;15.744;2023-08-08T01:29:30;23.40;;;0.70;;
2772;SDS011;1394;47.044;15.744;2023-08-08T01:31:58;23.50;;;0.73;;
2772;SDS011;1394;47.044;15.744;2023-08-08T01:34:25;25.17;;;0.73;;
2772;SDS011;1394;47.044;15.744;2023-08-08T01:36:54;23.37;;;0.70;;
2772;SDS011;1394;47.044;15.744;2023-08-08T01:39:25;23.40;;;0.80;;
2772;SDS011;1394;47.044;15.744;2023-08-08T01:41:54;23.60;;;0.80;;
2772;SDS011;1394;47.044;15.744;2023-08-08T01:44:22;23.50;;;0.80;;
2772;SDS011;1394;47.044;15.744;2023-08-08T01:46:50;23.47;;;0.70;;
2772;SDS011;1394;47.044;15.744;2023-08-08T01:49:18;23.40;;;1.00;;
2772;SDS011;1394;47.044;15.744;2023-08-08T01:51:45;24.30;;;1.13;;
2772;SDS011;1394;47.044;15.744;2023-08-08T01:54:13;23.43;;;0.60;;
2772;SDS011;1394;47.044;15.744;2023-08-08T01:56:40;24.13;;;0.70;;
2772;SDS011;1394;47.044;15.744;2023-08-08T01:59:11;23.70;;;0.80;;
2772;SDS011;1394;47.044;15.744;2023-08-08T02:01:39;23.37;;;0.80;;
2772;SDS011;1394;47.044;15.744;2023-08-08T02:04:06;23.57;;;0.80;;
2772;SDS011;1394;47.044;15.744;2023-08-08T02:06:34;23.43;;;0.70;;
2772;SDS011;1394;47.044;15.744;2023-08-08T02:09:01;23.50;;;0.73;;
2772;SDS011;1394;47.044;15.744;2023-08-08T02:11:29;23.47;;;0.80;;
2772;SDS011;1394;47.044;15.744;2023-08-08T02:13:56;23.50;;;0.70;;
2772;SDS011;1394;47.044;15.744;2023-08-08T02:16:25;25.20;;;0.87;;
2772;SDS011;1394;47.044;15.744;2023-08-08T02:18:53;23.30;;;0.80;;
2772;SDS011;1394;47.044;15.744;2023-08-08T02:21:21;23.20;;;0.70;;
2772;SDS011;1394;47.044;15.744;2023-08-08T02:23:52;23.60;;;0.70;;
2772;SDS011;1394;47.044;15.744;2023-08-08T02:26:21;24.37;;;0.80;;
2772;SDS011;1394;47.044;15.744;2023-08-08T02:28:48;24.07;;;0.80;;
2772;SDS011;1394;47.044;15.744;2023-08-08T02:31:15;23.47;;;0.70;;
2772;SDS011;1394;47.044;15.744;2023-08-08T02:33:49;22.97;;;0.70;;
2772;SDS011;1394;47.044;15.744;2023-08-08T02:36:17;23.37;;;0.70;;
2772;SDS011;1394;47.044;15.744;2023-08-08T02:38:44;24.63;;;0.90;;
2772;SDS011;1394;47.044;15.744;2023-08-08T02:41:12;23.77;;;0.90;;
2772;SDS011;1394;47.044;15.744;2023-08-08T02:43:39;23.60;;;0.90;;
2772;SDS011;1394;47.044;15.744;2023-08-08T02:46:10;23.70;;;1.07;;
2772;SDS011;1394;47.044;15.744;2023-08-08T02:48:37;23.47;;;0.90;;
2772;SDS011;1394;47.044;15.744;2023-08-08T02:51:06;23.70;;;1.10;;
2772;SDS011;1394;47.044;15.744;2023-08-08T02:53:34;23.93;;;1.00;;
2772;SDS011;1394;47.044;15.744;2023-08-08T02:56:01;23.40;;;0.70;;
2772;SDS011;1394;47.044;15.744;2023-08-08T02:58:31;24.17;;;0.70;;
2772;SDS011;1394;47.044;15.744;2023-08-08T03:00:58;23.30;;;0.70;;
2772;SDS011;1394;47.044;15.744;2023-08-08T03:03:25;23.97;;;1.00;;
2772;SDS011;1394;47.044;15.744;2023-08-08T03:05:53;22.90;;;0.60;;
2772;SDS011;1394;47.044;15.744;2023-08-08T03:08:22;23.67;;;0.83;;
2772;SDS011;1394;47.044;15.744;2023-08-08T03:10:49;23.87;;;0.90;;
2772;SDS011;1394;47.044;15.744;2023-08-08T03:13:17;24.07;;;0.90;;
2772;SDS011;1394;47.044;15.744;2023-08-08T03:15:45;23.97;;;0.80;;
2772;SDS011;1394;47.044;15.744;2023-08-08T03:18:12;23.50;;;0.80;;
2772;SDS011;1394;47.044;15.744;2023-08-08T03:20:39;23.67;;;1.00;;
2772;SDS011;1394;47.044;15.744;2023-08-08T03:23:06;25.20;;;0.97;;
2772;SDS011;1394;47.044;15.744;2023-08-08T03:25:35;23.43;;;0.97;;
2772;SDS011;1394;47.044;15.744;2023-08-08T03:28:03;25.30;;;1.00;;
2772;SDS011;1394;47.044;15.744;2023-08-08T03:30:32;24.07;;;1.53;;
2772;SDS011;1394;47.044;15.744;2023-08-08T03:32:59;23.77;;;1.20;;
2772;SDS011;1394;47.044;15.744;2023-08-08T03:35:26;23.97;;;1.20;;
2772;SDS011;1394;47.044;15.744;2023-08-08T03:37:54;23.77;;;1.20;;
2772;SDS011;1394;47.044;15.744;2023-08-08T03:40:21;24.07;;;1.20;;
2772;SDS011;1394;47.044;15.744;2023-08-08T03:42:51;24.10;;;0.80;;
2772;SDS011;1394;47.044;15.744;2023-08-08T03:45:18;23.43;;;0.90;;
2772;SDS011;1394;47.044;15.744;2023-08-08T03:47:46;25.40;;;1.00;;
2772;SDS011;1394;47.044;15.744;2023-08-08T03:50:13;23.57;;;0.83;;
2772;SDS011;1394;47.044;15.744;2023-08-08T03:52:40;23.53;;;0.97;;
2772;SDS011;1394;47.044;15.744;2023-08-08T03:55:08;23.57;;;0.90;;
2772;SDS011;1394;47.044;15.744;2023-08-08T03:57:36;24.00;;;0.70;;
2772;SDS011;1394;47.044;15.744;2023-08-08T04:00:10;24.07;;;0.80;;
2772;SDS011;1394;47.044;15.744;2023-08-08T04:02:38;23.17;;;0.70;;
2772;SDS011;1394;47.044;15.744;2023-08-08T04:05:05;23.50;;;0.90;;
2772;SDS011;1394;47.044;15.744;2023-08-08T04:07:35;23.40;;;0.70;;
2772;SDS011;1394;47.044;15.744;2023-08-08T04:10:02;23.30;;;0.70;;
2772;SDS011;1394;47.044;15.744;2023-08-08T04:12:30;23.37;;;0.80;;
2772;SDS011;1394;47.044;15.744;2023-08-08T04:14:58;23.47;;;0.90;;
2772;SDS011;1394;47.044;15.744;2023-08-08T04:17:37;23.47;;;0.80;;
2772;SDS011;1394;47.044;15.744;2023-08-08T04:20:06;23.77;;;1.00;;
2772;SDS011;1394;47.044;15.744;2023-08-08T04:22:35;23.20;;;0.67;;
2772;SDS011;1394;47.044;15.744;2023-08-08T04:25:03;23.97;;;0.70;;
2772;SDS011;1394;47.044;15.744;2023-08-08T04:27:35;23.50;;;0.90;;
2772;SDS011;1394;47.044;15.744;2023-08-08T04:30:03;23.37;;;0.80;;
2772;SDS011;1394;47.044;15.744;2023-08-08T04:32:32;23.47;;;0.63;;
2772;SDS011;1394;47.044;15.744;2023-08-08T04:35:00;23.33;;;0.80;;
2772;SDS011;1394;47.044;15.744;2023-08-08T04:37:27;23.10;;;0.80;;
2772;SDS011;1394;47.044;15.744;2023-08-08T04:39:55;23.37;;;0.77;;
2772;SDS011;1394;47.044;15.744;2023-08-08T04:42:22;23.10;;;0.70;;
2772;SDS011;1394;47.044;15.744;2023-08-08T04:44:50;23.20;;;0.63;;
2772;SDS011;1394;47.044;15.744;2023-08-08T04:47:17;23.40;;;0.80;;
2772;SDS011;1394;47.044;15.744;2023-08-08T04:49:45;23.20;;;0.70;;
2772;SDS011;1394;47.044;15.744;2023-08-08T04:52:15;23.20;;;0.60;;
2772;SDS011;1394;47.044;15.744;2023-08-08T04:54:43;23.10;;;0.73;;
2772;SDS011;1394;47.044;15.744;2023-08-08T04:57:10;23.33;;;0.70;;
2772;SDS011;1394;47.044;15.744;2023-08-08T04:59:38;23.40;;;0.90;;
2772;SDS011;1394;47.044;15.744;2023-08-08T05:02:06;23.20;;;0.70;;
2772;SDS011;1394;47.044;15.744;2023-08-08T05:04:33;23.30;;;0.80;;
2772;SDS011;1394;47.044;15.744;2023-08-08T05:07:03;23.80;;;0.83;;
2772;SDS011;1394;47.044;15.744;2023-08-08T05:09:32;23.60;;;0.90;;
2772;SDS011;1394;47.044;15.744;2023-08-08T05:11:59;23.77;;;0.90;;
2772;SDS011;1394;47.044;15.744;2023-08-08T05:14:27;23.47;;;0.80;;
2772;SDS011;1394;47.044;15.744;2023-08-08T05:16:54;24.50;;;0.80;;
2772;SDS011;1394;47.044;15.744;2023-08-08T05:19:21;23.33;;;0.97;;
2772;SDS011;1394;47.044;15.744;2023-08-08T05:21:49;23.40;;;0.80;;
2772;SDS011;1394;47.044;15.744;2023-08-08T05:24:16;24.07;;;0.90;;
2772;SDS011;1394;47.044;15.744;2023-08-08T05:26:48;23.53;;;0.80;;
2772;SDS011;1394;47.044;15.744;2023-08-08T05:29:26;23.40;;;0.70;;
2772;SDS011;1394;47.044;15.744;2023-08-08T05:31:53;23.73;;;0.90;;
2772;SDS011;1394;47.044;15.744;2023-08-08T05:34:23;23.40;;;0.80;;
2772;SDS011;1394;47.044;15.744;2023-08-08T05:36:51;23.80;;;1.00;;
2772;SDS011;1394;47.044;15.744;2023-08-08T05:39:18;23.70;;;1.00;;
2772;SDS011;1394;47.044;15.744;2023-08-08T05:41:47;23.57;;;0.90;;
2772;SDS011;1394;47.044;15.744;2023-08-08T05:44:14;23.60;;;0.97;;
2772;SDS011;1394;47.044;15.744;2023-08-08T05:46:42;24.27;;;1.10;;
2772;SDS011;1394;47.044;15.744;2023-08-08T05:49:10;23.67;;;0.90;;
2772;SDS011;1394;47.044;15.744;2023-08-08T05:51:37;23.80;;;0.83;;
2772;SDS011;1394;47.044;15.744;2023-08-08T05:54:04;24.57;;;0.90;;
2772;SDS011;1394;47.044;15.744;2023-08-08T05:56:42;24.00;;;0.87;;
2772;SDS011;1394;47.044;15.744;2023-08-08T05:59:10;23.80;;;0.90;;
2772;SDS011;1394;47.044;15.744;2023-08-08T06:01:38;23.90;;;1.00;;
2772;SDS011;1394;47.044;15.744;2023-08-08T06:04:05;24.20;;;1.10;;
2772;SDS011;1394;47.044;15.744;2023-08-08T06:06:33;23.90;;;1.00;;
2772;SDS011;1394;47.044;15.744;2023-08-08T06:09:03;23.70;;;0.80;;
2772;SDS011;1394;47.044;15.744;2023-08-08T06:11:30;24.87;;;1.00;;
2772;SDS011;1394;47.044;15.744;2023-08-08T06:13:57;23.93;;;0.83;;
2772;SDS011;1394;47.044;15.744;2023-08-08T06:16:29;23.97;;;0.87;;
2772;SDS011;1394;47.044;15.744;2023-08-08T06:18:56;24.17;;;1.10;;
2772;SDS011;1394;47.044;15.744;2023-08-08T06:21:23;25.47;;;1.17;;
2772;SDS011;1394;47.044;15.744;2023-08-08T06:23:52;24.07;;;1.00;;
2772;SDS011;1394;47.044;15.744;2023-08-08T06:26:20;24.60;;;1.00;;
2772;SDS011;1394;47.044;15.744;2023-08-08T06:28:47;23.90;;;0.90;;
2772;SDS011;1394;47.044;15.744;2023-08-08T06:31:14;24.70;;;1.17;;
2772;SDS011;1394;47.044;15.744;2023-08-08T06:33:43;24.10;;;1.07;;
2772;SDS011;1394;47.044;15.744;2023-08-08T06:36:10;24.33;;;1.00;;
2772;SDS011;1394;47.044;15.744;2023-08-08T06:38:37;24.07;;;0.80;;
2772;SDS011;1394;47.044;15.744;2023-08-08T06:41:04;23.90;;;1.00;;
2772;SDS011;1394;47.044;15.744;2023-08-08T06:43:34;24.13;;;0.90;;
2772;SDS011;1394;47.044;15.744;2023-08-08T06:46:01;24.27;;;1.10;;
2772;SDS011;1394;47.044;15.744;2023-08-08T06:48:28;24.47;;;1.00;;
2772;SDS011;1394;47.044;15.744;2023-08-08T06:50:58;24.70;;;0.97;;
2772;SDS011;1394;47.044;15.744;2023-08-08T06:53:27;23.90;;;0.90;;
2772;SDS011;1394;47.044;15.744;2023-08-08T06:55:57;24.07;;;0.90;;
2772;SDS011;1394;47.044;15.744;2023-08-08T06:58:24;23.93;;;0.90;;
2772;SDS011;1394;47.044;15.744;2023-08-08T07:00:51;24.10;;;0.80;;
2772;SDS011;1394;47.044;15.744;2023-08-08T07:03:19;24.07;;;0.87;;
2772;SDS011;1394;47.044;15.744;2023-08-08T07:05:48;24.10;;;0.67;;
2772;SDS011;1394;47.044;15.744;2023-08-08T07:08:19;24.57;;;0.80;;
2772;SDS011;1394;47.044;15.744;2023-08-08T07:10:48;24.20;;;1.00;;
2772;SDS011;1394;47.044;15.744;2023-08-08T07:13:15;23.90;;;0.70;;
2772;SDS011;1394;47.044;15.744;2023-08-08T07:15:42;24.07;;;0.70;;
2772;SDS011;1394;47.044;15.744;2023-08-08T07:18:09;24.50;;;0.90;;
2772;SDS011;1394;47.044;15.744;2023-08-08T07:20:36;24.37;;;0.90;;
2772;SDS011;1394;47.044;15.744;2023-08-08T07:23:04;24.30;;;0.80;;
2772;SDS011;1394;47.044;15.744;2023-08-08T07:25:35;24.20;;;0.90;;
2772;SDS011;1394;47.044;15.744;2023-08-08T07:28:04;24.50;;;0.80;;
2772;SDS011;1394;47.044;15.744;2023-08-08T07:30:31;24.63;;;0.90;;
2772;SDS011;1394;47.044;15.744;2023-08-08T07:32:58;24.23;;;0.70;;
2772;SDS011;1394;47.044;15.744;2023-08-08T07:35:26;24.30;;;0.77;;
2772;SDS011;1394;47.044;15.744;2023-08-08T07:37:53;24.63;;;0.90;;
2772;SDS011;1394;47.044;15.744;2023-08-08T07:40:20;24.30;;;0.80;;
2772;SDS011;1394;47.044;15.744;2023-08-08T07:42:50;24.37;;;0.63;;
2772;SDS011;1394;47.044;15.744;2023-08-08T07:45:17;24.20;;;0.67;;
2772;SDS011;1394;47.044;15.744;2023-08-08T07:47:44;24.27;;;0.60;;
2772;SDS011;1394;47.044;15.744;2023-08-08T07:50:14;24.20;;;0.53;;
2772;SDS011;1394;47.044;15.744;2023-08-08T07:52:42;24.30;;;0.70;;
2772;SDS011;1394;47.044;15.744;2023-08-08T07:55:09;24.20;;;0.63;;
2772;SDS011;1394;47.044;15.744;2023-08-08T07:57:38;24.57;;;0.70;;
2772;SDS011;1394;47.044;15.744;2023-08-08T08:00:07;24.30;;;0.70;;
2772;SDS011;1394;47.044;15.744;2023-08-08T08:02:38;24.30;;;0.50;;
2772;SDS011;1394;47.044;15.744;2023-08-08T08:05:06;24.83;;;0.80;;
2772;SDS011;1394;47.044;15.744;2023-08-08T08:07:36;24.40;;;0.70;;
2772;SDS011;1394;47.044;15.744;2023-08-08T08:10:04;24.57;;;0.70;;
2772;SDS011;1394;47.044;15.744;2023-08-08T08:12:31;24.57;;;0.63;;
2772;SDS011;1394;47.044;15.744;2023-08-08T08:15:00;24.30;;;0.60;;
2772;SDS011;1394;47.044;15.744;2023-08-08T08:17:30;24.40;;;0.60;;
2772;SDS011;1394;47.044;15.744;2023-08-08T08:19:58;24.50;;;0.73;;
2772;SDS011;1394;47.044;15.744;2023-08-08T08:22:30;24.40;;;0.53;;
2772;SDS011;1394;47.044;15.744;2023-08-08T08:24:57;24.50;;;0.60;;
2772;SDS011;1394;47.044;15.744;2023-08-08T08:27:25;24.50;;;0.60;;
2772;SDS011;1394;47.044;15.744;2023-08-08T08:29:54;24.30;;;0.50;;
2772;SDS011;1394;47.044;15.744;2023-08-08T08:32:21;24.50;;;0.60;;
2772;SDS011;1394;47.044;15.744;2023-08-08T08:34:50;24.40;;;0.60;;
2772;SDS011;1394;47.044;15.744;2023-08-08T08:37:17;24.50;;;0.60;;
2772;SDS011;1394;47.044;15.744;2023-08-08T08:39:44;24.30;;;0.60;;
2772;SDS011;1394;47.044;15.744;2023-08-08T08:42:11;24.40;;;0.50;;
2772;SDS011;1394;47.044;15.744;2023-08-08T08:44:40;25.90;;;0.63;;
2772;SDS011;1394;47.044;15.744;2023-08-08T08:47:09;24.90;;;0.80;;
2772;SDS011;1394;47.044;15.744;2023-08-08T08:49:39;24.40;;;0.60;;
2772;SDS011;1394;47.044;15.744;2023-08-08T08:52:12;24.50;;;0.67;;
2772;SDS011;1394;47.044;15.744;2023-08-08T08:54:39;24.40;;;0.50;;
2772;SDS011;1394;47.044;15.744;2023-08-08T08:57:08;24.30;;;0.57;;
2772;SDS011;1394;47.044;15.744;2023-08-08T08:59:36;24.40;;;0.50;;
2772;SDS011;1394;47.044;15.744;2023-08-08T09:02:05;24.20;;;0.60;;
2772;SDS011;1394;47.044;15.744;2023-08-08T09:04:35;24.30;;;0.60;;
2772;SDS011;1394;47.044;15.744;2023-08-08T09:07:02;24.30;;;0.50;;
2772;SDS011;1394;47.044;15.744;2023-08-08T09:09:35;24.47;;;0.57;;
2772;SDS011;1394;47.044;15.744;2023-08-08T09:12:03;24.40;;;0.70;;
2772;SDS011;1394;47.044;15.744;2023-08-08T09:14:31;24.40;;;0.60;;
2772;SDS011;1394;47.044;15.744;2023-08-08T09:16:59;24.50;;;0.63;;
2772;SDS011;1394;47.044;15.744;2023-08-08T09:19:30;24.50;;;0.63;;
2772;SDS011;1394;47.044;15.744;2023-08-08T09:21:59;24.50;;;0.70;;
2772;SDS011;1394;47.044;15.744;2023-08-08T09:24:26;24.80;;;0.70;;
2772;SDS011;1394;47.044;15.744;2023-08-08T09:26:55;24.30;;;0.50;;
2772;SDS011;1394;47.044;15.744;2023-08-08T09:29:22;24.47;;;0.70;;
2772;SDS011;1394;47.044;15.744;2023-08-08T09:31:50;24.40;;;0.60;;
2772;SDS011;1394;47.044;15.744;2023-08-08T09:34:17;24.50;;;0.63;;
2772;SDS011;1394;47.044;15.744;2023-08-08T09:36:47;24.50;;;0.63;;
2772;SDS011;1394;47.044;15.744;2023-08-08T09:39:16;24.40;;;0.50;;
2772;SDS011;1394;47.044;15.744;2023-08-08T09:41:45;24.80;;;0.70;;
2772;SDS011;1394;47.044;15.744;2023-08-08T09:44:15;24.87;;;0.63;;
2772;SDS011;1394;47.044;15.744;2023-08-08T09:46:42;24.50;;;0.70;;
2772;SDS011;1394;47.044;15.744;2023-08-08T09:49:09;24.60;;;0.80;;
2772;SDS011;1394;47.044;15.744;2023-08-08T09:51:37;24.70;;;0.63;;
2772;SDS011;1394;47.044;15.744;2023-08-08T09:54:04;24.70;;;0.70;;
2772;SDS011;1394;47.044;15.744;2023-08-08T09:56:32;24.67;;;0.63;;
2772;SDS011;1394;47.044;15.744;2023-08-08T09:59:00;24.60;;;0.70;;
2772;SDS011;1394;47.044;15.744;2023-08-08T10:01:31;24.77;;;0.70;;
2772;SDS011;1394;47.044;15.744;2023-08-08T10:03:58;24.50;;;0.60;;
2772;SDS011;1394;47.044;15.744;2023-08-08T10:06:26;24.40;;;0.50;;
2772;SDS011;1394;47.044;15.744;2023-08-08T10:08:55;24.80;;;0.50;;
2772;SDS011;1394;47.044;15.744;2023-08-08T10:11:24;24.70;;;0.70;;
2772;SDS011;1394;47.044;15.744;2023-08-08T10:13:52;24.50;;;0.50;;
2772;SDS011;1394;47.044;15.744;2023-08-08T10:16:20;24.67;;;0.60;;
2772;SDS011;1394;47.044;15.744;2023-08-08T10:18:55;24.50;;;0.60;;
2772;SDS011;1394;47.044;15.744;2023-08-08T10:21:23;24.60;;;0.70;;
2772;SDS011;1394;47.044;15.744;2023-08-08T10:24:00;24.80;;;0.67;;
2772;SDS011;1394;47.044;15.744;2023-08-08T10:26:27;24.87;;;0.70;;
2772;SDS011;1394;47.044;15.744;2023-08-08T10:28:56;24.40;;;0.50;;
2772;SDS011;1394;47.044;15.744;2023-08-08T10:31:26;24.30;;;0.60;;
2772;SDS011;1394;47.044;15.744;2023-08-08T10:34:03;24.50;;;0.60;;
2772;SDS011;1394;47.044;15.744;2023-08-08T10:36:43;25.00;;;0.80;;
2772;SDS011;1394;47.044;15.744;2023-08-08T10:39:11;24.40;;;0.70;;
2772;SDS011;1394;47.044;15.744;2023-08-08T10:41:44;24.47;;;0.70;;
2772;SDS011;1394;47.044;15.744;2023-08-08T10:44:11;24.77;;;0.60;;
2772;SDS011;1394;47.044;15.744;2023-08-08T10:46:41;24.60;;;0.80;;
2772;SDS011;1394;47.044;15.744;2023-08-08T10:49:12;24.50;;;0.70;;
2772;SDS011;1394;47.044;15.744;2023-08-08T10:51:42;24.60;;;0.60;;
2772;SDS011;1394;47.044;15.744;2023-08-08T10:54:12;24.27;;;0.53;;
2772;SDS011;1394;47.044;15.744;2023-08-08T10:56:41;24.50;;;0.80;;
2772;SDS011;1394;47.044;15.744;2023-08-08T10:59:15;24.40;;;0.60;;
2772;SDS011;1394;47.044;15.744;2023-08-08T11:01:44;24.50;;;0.80;;
2772;SDS011;1394;47.044;15.744;2023-08-08T11:04:13;24.43;;;0.60;;
2772;SDS011;1394;47.044;15.744;2023-08-08T11:06:41;24.87;;;0.60;;
2772;SDS011;1394;47.044;15.744;2023-08-08T11:09:08;24.53;;;0.63;;
2772;SDS011;1394;47.044;15.744;2023-08-08T11:11:37;24.67;;;0.60;;
2772;SDS011;1394;47.044;15.744;2023-08-08T11:14:11;24.40;;;0.60;;
2772;SDS011;1394;47.044;15.744;2023-08-08T11:16:39;24.40;;;0.63;;
2772;SDS011;1394;47.044;15.744;2023-08-08T11:19:07;24.50;;;0.67;;
2772;SDS011;1394;47.044;15.744;2023-08-08T11:21:36;24.50;;;0.70;;
2772;SDS011;1394;47.044;15.744;2023-08-08T11:24:05;24.40;;;0.60;;
2772;SDS011;1394;47.044;15.744;2023-08-08T11:26:33;24.50;;;0.60;;
2772;SDS011;1394;47.044;15.744;2023-08-08T11:29:01;24.40;;;0.60;;
2772;SDS011;1394;47.044;15.744;2023-08-08T11:31:32;24.43;;;0.60;;
2772;SDS011;1394;47.044;15.744;2023-08-08T11:34:00;24.50;;;0.60;;
2772;SDS011;1394;47.044;15.744;2023-08-08T11:36:28;24.40;;;0.50;;
2772;SDS011;1394;47.044;15.744;2023-08-08T11:39:03;24.60;;;0.60;;
2772;SDS011;1394;47.044;15.744;2023-08-08T11:41:33;24.40;;;0.60;;
2772;SDS011;1394;47.044;15.744;2023-08-08T11:44:01;24.73;;;0.60;;
2772;SDS011;1394;47.044;15.744;2023-08-08T11:46:28;24.30;;;0.50;;
2772;SDS011;1394;47.044;15.744;2023-08-08T11:49:01;24.27;;;0.50;;
2772;SDS011;1394;47.044;15.744;2023-08-08T11:51:28;24.30;;;0.60;;
2772;SDS011;1394;47.044;15.744;2023-08-08T11:53:57;24.40;;;0.60;;
2772;SDS011;1394;47.044;15.744;2023-08-08T11:56:32;24.77;;;0.70;;
2772;SDS011;1394;47.044;15.744;2023-08-08T11:59:01;24.30;;;0.53;;
2772;SDS011;1394;47.044;15.744;2023-08-08T12:01:29;24.60;;;0.70;;
2772;SDS011;1394;47.044;15.744;2023-08-08T12:03:57;24.37;;;0.60;;
2772;SDS011;1394;47.044;15.744;2023-08-08T12:06:28;24.37;;;0.50;;
2772;SDS011;1394;47.044;15.744;2023-08-08T12:08:57;24.50;;;0.50;;
2772;SDS011;1394;47.044;15.744;2023-08-08T12:11:26;24.33;;;0.60;;
2772;SDS011;1394;47.044;15.744;2023-08-08T12:13:59;24.40;;;0.60;;
2772;SDS011;1394;47.044;15.744;2023-08-08T12:16:27;24.40;;;0.77;;
2772;SDS011;1394;47.044;15.744;2023-08-08T12:19:00;24.27;;;0.60;;
2772;SDS011;1394;47.044;15.744;2023-08-08T12:21:27;24.50;;;0.70;;
2772;SDS011;1394;47.044;15.744;2023-08-08T12:23:54;24.53;;;0.70;;
2772;SDS011;1394;47.044;15.744;2023-08-08T12:26:21;24.20;;;0.60;;
2772;SDS011;1394;47.044;15.744;2023-08-08T12:28:48;24.37;;;0.60;;
2772;SDS011;1394;47.044;15.744;2023-08-08T12:31:20;24.30;;;0.53;;
2772;SDS011;1394;47.044;15.744;2023-08-08T12:33:49;24.40;;;0.60;;
2772;SDS011;1394;47.044;15.744;2023-08-08T12:36:18;24.33;;;0.60;;
2772;SDS011;1394;47.044;15.744;2023-08-08T12:38:48;24.20;;;0.63;;
2772;SDS011;1394;47.044;15.744;2023-08-08T12:41:17;24.37;;;0.70;;
2772;SDS011;1394;47.044;15.744;2023-08-08T12:43:44;24.40;;;0.60;;
2772;SDS011;1394;47.044;15.744;2023-08-08T12:46:11;24.30;;;0.60;;
2772;SDS011;1394;47.044;15.744;2023-08-08T12:48:42;24.30;;;0.60;;
2772;SDS011;1394;47.044;15.744;2023-08-08T12:51:11;24.20;;;0.60;;
2772;SDS011;1394;47.044;15.744;2023-08-08T12:53:41;24.10;;;0.50;;
2772;SDS011;1394;47.044;15.744;2023-08-08T12:56:08;24.17;;;0.50;;
2772;SDS011;1394;47.044;15.744;2023-08-08T12:58:37;24.00;;;0.40;;
2772;SDS011;1394;47.044;15.744;2023-08-08T13:01:06;24.10;;;0.60;;
2772;SDS011;1394;47.044;15.744;2023-08-08T13:03:33;24.77;;;0.90;;
2772;SDS011;1394;47.044;15.744;2023-08-08T13:06:02;24.70;;;0.60;;
2772;SDS011;1394;47.044;15.744;2023-08-08T13:08:30;24.30;;;0.50;;
2772;SDS011;1394;47.044;15.744;2023-08-08T13:10:59;24.30;;;0.60;;
2772;SDS011;1394;47.044;15.744;2023-08-08T13:13:29;24.10;;;0.60;;
2772;SDS011;1394;47.044;15.744;2023-08-08T13:15:57;24.03;;;0.50;;
2772;SDS011;1394;47.044;15.744;2023-08-08T13:18:24;24.20;;;0.60;;
2772;SDS011;1394;47.044;15.744;2023-08-08T13:20:51;24.47;;;0.50;;
2772;SDS011;1394;47.044;15.744;2023-08-08T13:23:22;24.20;;;0.60;;
2772;SDS011;1394;47.044;15.744;2023-08-08T13:25:51;24.00;;;0.53;;
2772;SDS011;1394;47.044;15.744;2023-08-08T13:28:18;24.20;;;0.70;;
2772;SDS011;1394;47.044;15.744;2023-08-08T13:30:48;24.00;;;0.50;;
2772;SDS011;1394;47.044;15.744;2023-08-08T13:33:15;24.00;;;0.50;;
2772;SDS011;1394;47.044;15.744;2023-08-08T13:35:42;24.20;;;0.47;;
2772;SDS011;1394;47.044;15.744;2023-08-08T13:38:09;24.20;;;0.53;;
2772;SDS011;1394;47.044;15.744;2023-08-08T13:40:43;24.10;;;0.60;;
2772;SDS011;1394;47.044;15.744;2023-08-08T13:43:10;24.10;;;0.50;;
2772;SDS011;1394;47.044;15.744;2023-08-08T13:45:38;24.20;;;0.60;;
2772;SDS011;1394;47.044;15.744;2023-08-08T13:48:08;24.20;;;0.70;;
2772;SDS011;1394;47.044;15.744;2023-08-08T13:50:35;24.20;;;0.60;;
2772;SDS011;1394;47.044;15.744;2023-08-08T13:53:02;24.20;;;0.40;;
2772;SDS011;1394;47.044;15.744;2023-08-08T13:55:30;24.20;;;0.50;;
2772;SDS011;1394;47.044;15.744;2023-08-08T13:58:08;24.10;;;0.50;;
2772;SDS011;1394;47.044;15.744;2023-08-08T14:00:35;24.17;;;0.57;;
2772;SDS011;1394;47.044;15.744;2023-08-08T14:03:02;24.20;;;0.60;;
2772;SDS011;1394;47.044;15.744;2023-08-08T14:05:30;24.00;;;0.57;;
2772;SDS011;1394;47.044;15.744;2023-08-08T14:07:58;24.00;;;0.50;;
2772;SDS011;1394;47.044;15.744;2023-08-08T14:10:25;24.00;;;0.50;;
2772;SDS011;1394;47.044;15.744;2023-08-08T14:12:52;24.10;;;0.50;;
2772;SDS011;1394;47.044;15.744;2023-08-08T14:15:23;24.27;;;0.60;;
2772;SDS011;1394;47.044;15.744;2023-08-08T14:17:51;24.10;;;0.50;;
2772;SDS011;1394;47.044;15.744;2023-08-08T14:20:19;24.00;;;0.50;;
2772;SDS011;1394;47.044;15.744;2023-08-08T14:22:46;24.10;;;0.57;;
2772;SDS011;1394;47.044;15.744;2023-08-08T14:25:13;23.90;;;0.40;;
2772;SDS011;1394;47.044;15.744;2023-08-08T14:27:41;24.20;;;0.60;;
2772;SDS011;1394;47.044;15.744;2023-08-08T14:30:09;24.23;;;0.73;;
2772;SDS011;1394;47.044;15.744;2023-08-08T14:32:40;23.90;;;0.50;;
2772;SDS011;1394;47.044;15.744;2023-08-08T14:35:09;24.00;;;0.57;;
2772;SDS011;1394;47.044;15.744;2023-08-08T14:37:39;24.10;;;0.60;;
2772;SDS011;1394;47.044;15.744;2023-08-08T14:40:09;23.97;;;0.60;;
2772;SDS011;1394;47.044;15.744;2023-08-08T14:42:36;24.00;;;0.50;;
2772;SDS011;1394;47.044;15.744;2023-08-08T14:45:03;24.00;;;0.40;;
2772;SDS011;1394;47.044;15.744;2023-08-08T14:47:31;23.90;;;0.50;;
2772;SDS011;1394;47.044;15.744;2023-08-08T14:50:01;24.10;;;0.50;;
2772;SDS011;1394;47.044;15.744;2023-08-08T14:52:29;24.10;;;0.60;;
2772;SDS011;1394;47.044;15.744;2023-08-08T14:54:56;24.07;;;0.57;;